This is the latest recevied weather packets stored in our database for station/object KD6VPH. If no packets are shown the sender has not sent any weather packets the latest 1 day(s).
| Time | Temp. | Humidity | Pressure | Rain* | Wind** | Luminosity | Snow |
|---|---|---|---|---|---|---|---|
| 1778099103 | 13.33° C | 77% | 1019.2 hPa | 0 mm | - | 332 W/m² | - |
| 1778098503 | 13.33° C | 77% | 1019.2 hPa | 0 mm | - | 264 W/m² | - |
| 1778097903 | 13.33° C | 77% | 1019.2 hPa | 0 mm | - | 225 W/m² | - |
| 1778097303 | 13.33° C | 77% | 1019.1 hPa | 0 mm | - | 223 W/m² | - |
| 1778095503 | 13.33° C | 78% | 1019.1 hPa | 0 mm | - | 195 W/m² | - |
| 1778093703 | 13.33° C | 77% | 1019 hPa | 0 mm | - | 165 W/m² | - |
| 1778091903 | 13.33° C | 77% | 1018.8 hPa | 0 mm | - | 176 W/m² | - |
| 1778088903 | 13.33° C | 76% | 1018.3 hPa | 0 mm | - | 438 W/m² | - |
| 1778078704 | 11.11° C | 81% | 1018 hPa | 0 mm | - | 123 W/m² | - |
| 1778076953 | 11.11° C | 83% | 1017.7 hPa | 0 mm | - | 69 W/m² | - |
| 1778076904 | 11.11° C | 83% | 1017.7 hPa | 0 mm | - | 69 W/m² | - |
| 1778074504 | 11.11° C | 83% | 1017.6 hPa | 0 mm | - | 33 W/m² | - |
| 1778072704 | 10.56° C | 83% | 1017.5 hPa | 0 mm | - | 5 W/m² | - |
| 1778072104 | 10.56° C | 84% | 1017.4 hPa | 0 mm | - | 0 W/m² | - |
| 1778067304 | 11.11° C | 84% | 1016.6 hPa | 0 mm | - | 0 W/m² | - |
| 1778043305 | 12.22° C | 83% | 1014.6 hPa | 0 mm | - | 0 W/m² | - |
| 1778042105 | 12.78° C | 81% | 1014.6 hPa | 0 mm | - | 0 W/m² | - |
| 1778040907 | 13.33° C | 80% | 1014.3 hPa | 0 mm | - | 0 W/m² | - |
| 1778034305 | 16.67° C | 72% | 1013.7 hPa | 0 mm | - | 44 W/m² | - |
| 1778030106 | 18.89° C | 67% | 1013.4 hPa | 0 mm | - | 501 W/m² | - |
| 1778028906 | 18.33° C | 68% | 1013.5 hPa | 0 mm | - | 629 W/m² | - |
| 1778028306 | 18.89° C | 68% | 1013.7 hPa | 0 mm | - | 478 W/m² | - |
| 1778027706 | 19.44° C | 66% | 1013.8 hPa | 0 mm | - | 529 W/m² | - |
| 1778027106 | 18.89° C | 67% | 1013.5 hPa | 0 mm | - | 499 W/m² | - |
| 1778026506 | 18.89° C | 68% | 1013.6 hPa | 0 mm | - | 940 W/m² | - |
* Rain latest hour (hover to see other rain measurements)
** Current wind speed in m/s (hover to see current wind gust speed)